createdAt,value
2022-12-11T00:00:48.419Z,9.48
2022-12-11T00:03:16.627Z,8.98
2022-12-11T00:05:44.407Z,9.48
2022-12-11T00:08:11.947Z,8.95
2022-12-11T00:10:38.772Z,9.88
2022-12-11T00:13:06.532Z,10.65
2022-12-11T00:15:33.812Z,10.65
2022-12-11T00:18:00.404Z,10.02
2022-12-11T00:20:27.115Z,10.68
2022-12-11T00:22:53.640Z,9.85
2022-12-11T00:25:20.228Z,11.02
2022-12-11T00:27:47.298Z,10.10
2022-12-11T00:30:14.502Z,9.82
2022-12-11T00:32:41.079Z,10.35
2022-12-11T00:35:08.462Z,10.52
2022-12-11T00:37:35.755Z,9.57
2022-12-11T00:40:03.241Z,10.63
2022-12-11T00:42:29.770Z,10.73
2022-12-11T00:44:56.412Z,11.43
2022-12-11T00:47:22.976Z,9.80
2022-12-11T00:49:50.105Z,10.00
2022-12-11T00:52:17.854Z,10.05
2022-12-11T00:54:45.017Z,10.75
2022-12-11T00:57:11.594Z,10.30
2022-12-11T00:59:38.708Z,10.05
2022-12-11T01:02:05.365Z,9.50
2022-12-11T01:04:35.211Z,8.93
2022-12-11T01:07:01.738Z,9.55
2022-12-11T01:09:48.565Z,9.38
2022-12-11T01:12:15.118Z,9.25
2022-12-11T01:14:41.677Z,10.40
2022-12-11T01:17:08.202Z,10.20
2022-12-11T01:19:34.726Z,10.63
2022-12-11T01:22:01.357Z,11.40
2022-12-11T01:24:28.505Z,10.88
2022-12-11T01:26:56.961Z,11.90
2022-12-11T01:29:23.480Z,10.95
2022-12-11T01:31:50.010Z,10.00
2022-12-11T01:34:16.539Z,10.95
2022-12-11T01:36:43.686Z,10.77
2022-12-11T01:39:10.270Z,10.27
2022-12-11T01:41:36.767Z,10.43
2022-12-11T01:44:29.246Z,9.70
2022-12-11T01:46:56.589Z,10.35
2022-12-11T01:49:26.104Z,9.95
2022-12-11T01:51:58.020Z,10.90
2022-12-11T01:54:27.513Z,9.82
2022-12-11T01:56:58.419Z,9.35
2022-12-11T01:59:29.124Z,10.55
2022-12-11T02:02:10.033Z,10.23
2022-12-11T02:04:39.007Z,16.65
2022-12-11T02:07:06.230Z,16.58
2022-12-11T02:09:35.314Z,15.98
2022-12-11T02:12:03.739Z,16.75
2022-12-11T02:14:43.500Z,19.48
2022-12-11T02:17:19.550Z,13.05
2022-12-11T02:19:48.943Z,13.90
2022-12-11T02:22:29.108Z,14.50
2022-12-11T02:25:23.666Z,16.15
2022-12-11T02:28:05.574Z,15.05
2022-12-11T02:30:37.070Z,13.65
2022-12-11T02:33:05.283Z,11.35
2022-12-11T02:35:39.812Z,10.75
2022-12-11T02:38:11.672Z,10.90
2022-12-11T02:40:40.860Z,9.50
2022-12-11T02:43:11.703Z,10.10
2022-12-11T02:45:42.228Z,10.38
2022-12-11T02:48:11.793Z,10.40
2022-12-11T02:50:44.330Z,10.63
2022-12-11T02:53:13.410Z,10.50
2022-12-11T02:55:44.631Z,11.13
2022-12-11T02:58:19.792Z,9.88
2022-12-11T03:00:46.865Z,11.07
2022-12-11T03:03:14.108Z,10.18
2022-12-11T03:05:41.999Z,10.50
2022-12-11T03:08:08.626Z,9.98
2022-12-11T03:10:35.260Z,10.18
2022-12-11T03:13:02.807Z,10.38
2022-12-11T03:15:41.576Z,10.30
2022-12-11T03:18:26.719Z,10.02
2022-12-11T03:21:05.193Z,9.50
2022-12-11T03:23:48.924Z,9.32
2022-12-11T03:26:18.580Z,10.10
2022-12-11T03:28:58.496Z,9.93
2022-12-11T03:31:42.482Z,9.30
2022-12-11T03:34:16.407Z,10.52
2022-12-11T03:36:45.511Z,11.63
2022-12-11T03:39:24.149Z,11.13
2022-12-11T03:41:52.806Z,11.32
2022-12-11T03:44:21.385Z,12.07
2022-12-11T03:46:50.457Z,12.82
2022-12-11T03:49:22.919Z,12.25
2022-12-11T03:51:52.269Z,11.18
2022-12-11T03:54:19.458Z,10.07
2022-12-11T03:56:48.611Z,9.38
2022-12-11T03:59:15.209Z,9.93
2022-12-11T04:01:42.310Z,10.27
2022-12-11T04:04:09.053Z,10.30
2022-12-11T04:06:35.909Z,10.13
2022-12-11T04:09:02.787Z,9.88
2022-12-11T04:11:35.153Z,9.40
2022-12-11T04:14:21.859Z,9.75
2022-12-11T04:16:48.458Z,9.43
2022-12-11T04:19:34.037Z,9.70
2022-12-11T04:22:19.409Z,9.43
2022-12-11T04:24:49.035Z,10.23
2022-12-11T04:27:36.153Z,9.77
2022-12-11T04:30:05.716Z,8.88
2022-12-11T04:32:32.248Z,9.98
2022-12-11T04:34:58.887Z,9.43
2022-12-11T04:37:26.837Z,10.10
2022-12-11T04:39:53.455Z,9.27
2022-12-11T04:42:20.171Z,9.25
2022-12-11T04:44:46.808Z,10.30
2022-12-11T04:47:15.036Z,10.23
2022-12-11T04:49:41.686Z,10.65
2022-12-11T04:52:08.305Z,9.15
2022-12-11T04:54:34.947Z,10.27
2022-12-11T04:57:01.536Z,9.75
2022-12-11T04:59:28.484Z,9.35
2022-12-11T05:01:55.032Z,9.35
2022-12-11T05:04:21.617Z,11.10
2022-12-11T05:06:50.406Z,11.45
2022-12-11T05:09:17.290Z,10.68
2022-12-11T05:11:43.827Z,10.75
2022-12-11T05:14:10.633Z,10.05
2022-12-11T05:16:37.233Z,10.25
2022-12-11T05:19:03.747Z,9.88
2022-12-11T05:21:34.839Z,10.50
2022-12-11T05:26:28.264Z,8.75
2022-12-11T05:28:55.447Z,10.05
2022-12-11T05:31:26.966Z,9.10
2022-12-11T05:33:54.122Z,10.07
2022-12-11T05:36:29.957Z,8.88
2022-12-11T05:38:58.215Z,9.00
2022-12-11T05:41:27.055Z,10.05
2022-12-11T05:43:53.903Z,9.05
2022-12-11T05:46:25.951Z,9.98
2022-12-11T05:48:55.548Z,9.55
2022-12-11T05:51:22.799Z,9.82
2022-12-11T05:53:52.134Z,10.15
2022-12-11T05:56:27.538Z,9.90
2022-12-11T05:58:55.608Z,14.52
2022-12-11T06:01:42.790Z,14.73
2022-12-11T06:04:11.672Z,15.68
2022-12-11T06:06:38.659Z,12.73
2022-12-11T06:09:06.117Z,14.07
2022-12-11T06:11:33.978Z,13.98
2022-12-11T06:14:02.388Z,13.90
2022-12-11T06:16:29.126Z,13.73
2022-12-11T06:18:58.358Z,12.15
2022-12-11T06:21:29.415Z,11.88
2022-12-11T06:23:58.346Z,11.55
2022-12-11T06:26:25.416Z,11.40
2022-12-11T06:28:52.009Z,12.02
2022-12-11T06:31:19.576Z,11.55
2022-12-11T06:33:46.634Z,11.75
2022-12-11T06:36:16.616Z,10.73
2022-12-11T06:38:44.430Z,11.18
2022-12-11T06:41:11.264Z,11.57
2022-12-11T06:43:40.107Z,10.18
2022-12-11T06:46:18.445Z,11.88
2022-12-11T06:48:45.699Z,11.27
2022-12-11T06:51:23.000Z,11.73
2022-12-11T06:53:54.749Z,11.52
2022-12-11T06:56:22.500Z,11.02
2022-12-11T06:58:49.312Z,11.52
2022-12-11T07:01:18.947Z,11.40
2022-12-11T07:03:45.924Z,11.63
2022-12-11T07:06:13.937Z,11.82
2022-12-11T07:08:40.886Z,12.48
2022-12-11T07:11:09.731Z,12.70
2022-12-11T07:13:36.590Z,11.80
2022-12-11T07:16:05.629Z,12.10
2022-12-11T07:18:32.682Z,11.35
2022-12-11T07:21:02.315Z,11.13
2022-12-11T07:23:29.993Z,9.75
2022-12-11T07:25:57.514Z,11.70
2022-12-11T07:28:24.352Z,10.40
2022-12-11T07:30:51.012Z,10.20
2022-12-11T07:33:18.164Z,10.88
2022-12-11T07:35:44.860Z,12.18
2022-12-11T07:38:11.612Z,12.55
2022-12-11T07:40:38.176Z,12.27
2022-12-11T07:43:04.736Z,14.93
2022-12-11T07:45:31.744Z,15.68
2022-12-11T07:48:00.446Z,15.45
2022-12-11T07:50:28.433Z,14.60
2022-12-11T07:52:55.171Z,14.32
2022-12-11T07:55:21.733Z,12.98
2022-12-11T07:57:48.370Z,18.63
2022-12-11T08:00:15.096Z,18.20
2022-12-11T08:02:44.539Z,17.52
2022-12-11T08:05:14.007Z,17.98
2022-12-11T08:07:40.690Z,15.20
2022-12-11T08:10:07.567Z,13.85
2022-12-11T08:12:35.378Z,15.13
2022-12-11T08:15:02.218Z,13.98
2022-12-11T08:17:31.799Z,13.27
2022-12-11T08:20:00.544Z,12.80
2022-12-11T08:22:28.261Z,12.75
2022-12-11T08:24:54.852Z,11.73
2022-12-11T08:27:21.471Z,12.77
2022-12-11T08:29:48.050Z,13.25
2022-12-11T08:32:16.721Z,14.57
2022-12-11T08:34:43.682Z,14.05
2022-12-11T08:37:11.248Z,14.55
2022-12-11T08:39:38.957Z,14.15
2022-12-11T08:42:06.942Z,15.60
2022-12-11T08:44:33.489Z,14.90
2022-12-11T08:47:00.041Z,15.48
2022-12-11T08:49:29.919Z,14.38
2022-12-11T08:52:00.770Z,13.85
2022-12-11T08:54:27.280Z,13.40
2022-12-11T08:56:57.991Z,14.82
2022-12-11T08:59:28.303Z,15.00
2022-12-11T09:01:55.514Z,14.98
2022-12-11T09:04:22.706Z,14.05
2022-12-11T09:06:49.524Z,11.38
2022-12-11T09:09:16.036Z,12.68
2022-12-11T09:11:42.755Z,13.27
2022-12-11T09:14:12.193Z,13.00
2022-12-11T09:16:42.852Z,12.52
2022-12-11T09:19:19.107Z,12.35
2022-12-11T09:21:45.956Z,10.48
2022-12-11T09:24:16.947Z,10.73
2022-12-11T09:26:43.623Z,10.25
2022-12-11T09:29:11.458Z,10.63
2022-12-11T09:31:38.164Z,9.02
2022-12-11T09:34:07.417Z,9.10
2022-12-11T09:36:34.311Z,9.70
2022-12-11T09:39:06.034Z,8.63
2022-12-11T09:41:38.454Z,8.93
2022-12-11T09:44:11.182Z,7.03
2022-12-11T09:46:39.567Z,8.52
2022-12-11T09:49:18.474Z,7.30
2022-12-11T09:51:51.928Z,8.77
2022-12-11T09:54:19.108Z,8.68
2022-12-11T09:56:54.976Z,8.15
2022-12-11T09:59:29.594Z,10.00
2022-12-11T10:02:22.517Z,8.77
2022-12-11T10:05:00.859Z,8.40
2022-12-11T10:07:43.453Z,9.98
2022-12-11T10:13:03.044Z,8.25
2022-12-11T10:15:48.318Z,9.07
2022-12-11T10:18:21.262Z,8.85
2022-12-11T10:20:50.302Z,9.55
2022-12-11T10:23:22.193Z,9.15
2022-12-11T10:25:56.107Z,10.57
2022-12-11T10:28:22.966Z,10.23
2022-12-11T10:31:15.825Z,8.95
2022-12-11T10:34:00.446Z,9.25
2022-12-11T10:36:30.735Z,8.30
2022-12-11T10:38:57.963Z,10.50
2022-12-11T10:41:36.011Z,13.93
2022-12-11T10:44:25.660Z,14.10
2022-12-11T10:47:12.171Z,30.27
2022-12-11T10:49:43.133Z,20.48
2022-12-11T10:52:13.733Z,14.98
2022-12-11T10:54:43.591Z,16.53
2022-12-11T10:57:14.227Z,13.05
2022-12-11T10:59:45.696Z,11.43
2022-12-11T11:04:45.559Z,11.27
2022-12-11T11:07:13.516Z,11.50
2022-12-11T11:09:40.876Z,9.57
2022-12-11T11:12:24.595Z,7.53
2022-12-11T11:15:06.872Z,9.88
2022-12-11T11:17:49.803Z,14.75
2022-12-11T11:20:25.968Z,9.07
2022-12-11T11:22:56.094Z,7.82
2022-12-11T11:25:28.812Z,9.10
2022-12-11T11:27:55.338Z,7.75
2022-12-11T11:30:31.111Z,8.52
2022-12-11T11:33:02.348Z,10.00
2022-12-11T11:35:31.153Z,9.18
2022-12-11T11:38:20.302Z,12.35
2022-12-11T11:41:05.674Z,7.15
2022-12-11T11:43:43.085Z,7.43
2022-12-11T11:46:22.003Z,7.20
2022-12-11T11:48:48.604Z,7.35
2022-12-11T11:51:31.367Z,7.35
2022-12-11T11:54:01.536Z,7.45
2022-12-11T11:56:36.541Z,7.38
2022-12-11T11:59:18.328Z,6.55
2022-12-11T12:01:45.198Z,7.05
2022-12-11T12:04:12.155Z,5.30
2022-12-11T12:06:56.474Z,8.00
2022-12-11T12:09:42.418Z,7.50
2022-12-11T12:12:09.004Z,6.68
2022-12-11T12:15:05.748Z,6.30
2022-12-11T12:18:16.946Z,7.07
2022-12-11T12:20:53.807Z,6.70
2022-12-11T12:24:06.668Z,6.28
2022-12-11T12:26:36.600Z,8.63
2022-12-11T12:29:11.950Z,6.65
2022-12-11T12:31:53.620Z,7.97
2022-12-11T12:34:39.385Z,6.40
2022-12-11T12:37:23.213Z,6.88
2022-12-11T12:40:28.913Z,7.13
2022-12-11T12:42:55.433Z,6.80
2022-12-11T12:45:28.831Z,7.05
2022-12-11T12:47:55.414Z,6.90
2022-12-11T12:50:26.276Z,7.88
2022-12-11T12:52:54.239Z,8.45
2022-12-11T12:55:27.121Z,8.20
2022-12-11T12:57:57.695Z,17.63
2022-12-11T13:00:38.561Z,10.87
2022-12-11T13:03:19.214Z,9.40
2022-12-11T13:06:07.686Z,9.03
2022-12-11T13:08:38.191Z,7.88
2022-12-11T13:11:11.957Z,8.30
2022-12-11T13:14:06.264Z,8.00
2022-12-11T13:16:39.666Z,7.95
2022-12-11T13:19:18.468Z,8.43
2022-12-11T13:22:00.039Z,7.85
2022-12-11T13:24:28.682Z,7.05
2022-12-11T13:26:55.905Z,8.00
2022-12-11T13:29:32.658Z,6.90
2022-12-11T13:32:02.118Z,7.85
2022-12-11T13:34:33.691Z,7.60
2022-12-11T13:37:02.471Z,6.80
2022-12-11T13:39:39.326Z,6.85
2022-12-11T13:42:20.642Z,5.13
2022-12-11T13:44:50.853Z,5.97
2022-12-11T13:47:19.722Z,6.32
2022-12-11T13:49:49.960Z,6.68
2022-12-11T13:52:28.669Z,6.70
2022-12-11T13:54:56.317Z,7.57
2022-12-11T13:57:25.888Z,7.53
2022-12-11T13:59:54.677Z,7.25
2022-12-11T14:02:29.733Z,7.40
2022-12-11T14:05:02.521Z,6.93
2022-12-11T14:07:36.413Z,6.82
2022-12-11T14:10:28.356Z,6.57
2022-12-11T14:13:02.600Z,6.57
2022-12-11T14:15:31.742Z,7.18
2022-12-11T14:18:00.115Z,7.90
2022-12-11T14:20:31.117Z,7.57
2022-12-11T14:23:19.723Z,7.07
2022-12-11T14:26:23.116Z,7.45
2022-12-11T14:28:50.011Z,7.00
2022-12-11T14:31:23.445Z,7.50
2022-12-11T14:33:55.753Z,9.60
2022-12-11T14:36:23.564Z,7.97
2022-12-11T14:38:56.480Z,8.82
2022-12-11T14:41:35.132Z,7.80
2022-12-11T14:44:04.941Z,10.48
2022-12-11T14:46:43.851Z,9.07
2022-12-11T14:49:35.256Z,8.00
2022-12-11T14:52:04.186Z,7.65
2022-12-11T14:54:39.032Z,8.95
2022-12-11T14:57:07.429Z,8.90
2022-12-11T14:59:44.429Z,8.25
2022-12-11T15:02:29.791Z,6.40
2022-12-11T15:05:03.152Z,6.20
2022-12-11T15:07:29.958Z,6.75
2022-12-11T15:09:56.612Z,6.05
2022-12-11T15:12:24.057Z,7.03
2022-12-11T15:15:15.066Z,7.85
2022-12-11T15:17:41.871Z,11.32
2022-12-11T15:20:20.101Z,9.25
2022-12-11T15:22:46.770Z,9.30
2022-12-11T15:25:25.190Z,13.05
2022-12-11T15:28:00.070Z,8.95
2022-12-11T15:30:32.617Z,8.90
2022-12-11T15:33:04.373Z,8.57
2022-12-11T15:35:31.052Z,10.75
2022-12-11T15:37:59.465Z,10.95
2022-12-11T15:40:27.940Z,10.23
2022-12-11T15:42:57.660Z,8.57
2022-12-11T15:45:28.356Z,9.13
2022-12-11T15:47:55.583Z,10.80
2022-12-11T15:50:28.294Z,10.00
2022-12-11T15:52:56.744Z,9.48
2022-12-11T15:55:34.158Z,9.90
2022-12-11T15:58:07.763Z,9.63
2022-12-11T16:00:34.308Z,9.20
2022-12-11T16:03:01.982Z,10.60
2022-12-11T16:05:29.771Z,10.23
2022-12-11T16:07:59.542Z,10.57
2022-12-11T16:10:27.109Z,11.02
2022-12-11T16:12:59.190Z,9.90
2022-12-11T16:15:27.027Z,9.73
2022-12-11T16:18:02.954Z,13.90
2022-12-11T16:20:31.172Z,13.05
2022-12-11T16:22:59.179Z,12.13
2022-12-11T16:25:29.660Z,9.70
2022-12-11T16:28:00.540Z,10.20
2022-12-11T16:30:28.935Z,10.73
2022-12-11T16:33:00.288Z,11.10
2022-12-11T16:35:28.543Z,9.80
2022-12-11T16:37:59.269Z,9.48
2022-12-11T16:40:25.815Z,7.95
2022-12-11T16:42:52.595Z,7.25
2022-12-11T16:45:22.465Z,10.18
2022-12-11T16:47:49.268Z,10.13
2022-12-11T16:50:16.730Z,9.63
2022-12-11T16:52:44.402Z,9.82
2022-12-11T16:55:15.562Z,9.90
2022-12-11T16:57:42.616Z,10.50
2022-12-11T17:00:12.706Z,7.60
2022-12-11T17:02:39.772Z,8.55
2022-12-11T17:05:08.855Z,8.18
2022-12-11T17:07:37.373Z,9.07
2022-12-11T17:10:07.522Z,10.07
2022-12-11T17:12:34.343Z,8.23
2022-12-11T17:15:00.933Z,7.95
2022-12-11T17:17:28.061Z,7.88
2022-12-11T17:19:55.737Z,7.25
2022-12-11T17:22:22.658Z,7.22
2022-12-11T17:24:49.631Z,6.90
2022-12-11T17:27:16.244Z,9.00
2022-12-11T17:29:43.068Z,8.93
2022-12-11T17:32:09.610Z,8.43
2022-12-11T17:34:38.541Z,7.22
2022-12-11T17:37:06.144Z,7.35
2022-12-11T17:39:33.408Z,7.20
2022-12-11T17:42:00.352Z,7.32
2022-12-11T17:44:31.176Z,8.43
2022-12-11T17:46:58.853Z,8.90
2022-12-11T17:49:25.840Z,7.28
2022-12-11T17:51:55.607Z,6.80
2022-12-11T17:54:23.589Z,7.93
2022-12-11T17:56:53.304Z,8.27
2022-12-11T17:59:19.988Z,8.27
2022-12-11T18:01:46.753Z,8.52
2022-12-11T18:04:13.393Z,8.60
2022-12-11T18:06:40.139Z,8.43
2022-12-11T18:09:07.090Z,8.55
2022-12-11T18:11:34.689Z,7.35
2022-12-11T18:14:01.793Z,6.70
2022-12-11T18:16:37.898Z,7.40
2022-12-11T18:19:06.018Z,7.07
2022-12-11T18:21:35.598Z,8.25
2022-12-11T18:24:02.917Z,8.00
2022-12-11T18:26:29.964Z,8.82
2022-12-11T18:29:00.489Z,9.40
2022-12-11T18:31:29.215Z,7.55
2022-12-11T18:33:56.631Z,8.52
2022-12-11T18:36:23.494Z,8.85
2022-12-11T18:38:52.919Z,8.73
2022-12-11T18:41:20.380Z,8.80
2022-12-11T18:43:47.245Z,8.55
2022-12-11T18:46:16.675Z,8.50
2022-12-11T18:48:44.624Z,9.18
2022-12-11T18:51:17.591Z,10.68
2022-12-11T18:53:44.848Z,11.27
2022-12-11T18:56:15.197Z,7.95
2022-12-11T18:58:42.399Z,8.55
2022-12-11T19:01:13.852Z,9.32
2022-12-11T19:03:44.189Z,8.27
2022-12-11T19:06:13.936Z,11.52
2022-12-11T19:08:41.031Z,8.00
2022-12-11T19:11:07.895Z,9.30
2022-12-11T19:13:35.497Z,7.43
2022-12-11T19:16:02.670Z,10.38
2022-12-11T19:18:31.978Z,9.90
2022-12-11T19:21:06.722Z,9.32
2022-12-11T19:23:36.412Z,9.77
2022-12-11T19:26:03.608Z,9.98
2022-12-11T19:28:30.496Z,7.80
2022-12-11T19:30:57.178Z,7.75
2022-12-11T19:33:24.057Z,7.38
2022-12-11T19:36:01.026Z,7.40
2022-12-11T19:38:28.125Z,7.90
2022-12-11T19:40:55.325Z,7.53
2022-12-11T19:43:21.964Z,7.97
2022-12-11T19:45:48.790Z,8.02
2022-12-11T19:48:15.458Z,8.35
2022-12-11T19:50:41.999Z,8.52
2022-12-11T19:53:08.572Z,9.43
2022-12-11T19:55:38.142Z,9.98
2022-12-11T19:58:07.367Z,14.07
2022-12-11T20:00:37.603Z,16.05
2022-12-11T20:03:04.184Z,11.18
2022-12-11T20:05:30.728Z,10.35
2022-12-11T20:08:14.298Z,9.05
2022-12-11T20:10:44.840Z,8.75
2022-12-11T20:13:11.458Z,8.80
2022-12-11T20:15:38.941Z,9.43
2022-12-11T20:18:05.604Z,9.10
2022-12-11T20:20:32.394Z,9.85
2022-12-11T20:22:59.374Z,9.05
2022-12-11T20:25:27.348Z,9.05
2022-12-11T20:27:55.666Z,9.45
2022-12-11T20:30:23.718Z,9.73
2022-12-11T20:32:51.585Z,9.18
2022-12-11T20:35:18.659Z,7.65
2022-12-11T20:37:45.422Z,7.78
2022-12-11T20:40:13.078Z,8.15
2022-12-11T20:42:40.476Z,8.02
2022-12-11T20:45:07.804Z,7.72
2022-12-11T20:47:34.771Z,10.15
2022-12-11T20:50:01.718Z,9.65
2022-12-11T20:52:28.309Z,9.10
2022-12-11T20:54:54.874Z,19.15
2022-12-11T20:57:21.637Z,8.98
2022-12-11T20:59:49.530Z,9.52
2022-12-11T21:02:16.459Z,9.05
2022-12-11T21:04:43.167Z,9.45
2022-12-11T21:07:10.616Z,8.18
2022-12-11T21:09:38.338Z,8.90
2022-12-11T21:12:06.200Z,8.75
2022-12-11T21:14:32.969Z,9.32
2022-12-11T21:16:59.788Z,11.02
2022-12-11T21:19:26.815Z,7.47
2022-12-11T21:21:55.156Z,10.15
2022-12-11T21:24:27.518Z,9.82
2022-12-11T21:26:56.163Z,10.05
2022-12-11T21:29:24.681Z,8.32
2022-12-11T21:31:51.749Z,8.70
2022-12-11T21:34:25.040Z,8.85
2022-12-11T21:36:56.429Z,8.65
2022-12-11T21:39:24.881Z,8.85
2022-12-11T21:41:52.756Z,8.43
2022-12-11T21:47:06.040Z,9.13
2022-12-11T21:49:32.672Z,7.90
2022-12-11T21:51:59.774Z,10.20
2022-12-11T21:54:26.959Z,7.97
2022-12-11T21:56:54.580Z,10.05
2022-12-11T21:59:21.254Z,8.88
2022-12-11T22:01:47.817Z,8.98
2022-12-11T22:04:15.532Z,9.65
2022-12-11T22:06:43.435Z,9.10
2022-12-11T22:09:12.389Z,9.88
2022-12-11T22:11:41.219Z,9.88
2022-12-11T22:14:18.879Z,9.82
2022-12-11T22:16:45.877Z,9.88
2022-12-11T22:19:12.891Z,8.57
2022-12-11T22:21:39.989Z,7.80
2022-12-11T22:24:07.075Z,9.13
2022-12-11T22:26:33.633Z,8.93
2022-12-11T22:29:00.198Z,10.18
2022-12-11T22:31:30.136Z,10.23
2022-12-11T22:33:56.779Z,9.45
2022-12-11T22:36:26.023Z,9.35
2022-12-11T22:38:53.401Z,8.57
2022-12-11T22:41:29.434Z,9.20
2022-12-11T22:43:57.130Z,9.40
2022-12-11T22:46:27.258Z,8.10
2022-12-11T22:48:54.898Z,9.60
2022-12-11T22:51:23.450Z,9.02
2022-12-11T22:53:50.338Z,7.75
2022-12-11T22:56:17.276Z,9.55
2022-12-11T22:58:43.833Z,9.57
2022-12-11T23:01:17.174Z,10.15
2022-12-11T23:03:43.942Z,9.23
2022-12-11T23:06:13.388Z,9.00
2022-12-11T23:08:40.680Z,9.15
2022-12-11T23:11:20.096Z,8.30
2022-12-11T23:13:46.785Z,9.15
2022-12-11T23:16:14.060Z,8.85
2022-12-11T23:18:40.921Z,8.15
2022-12-11T23:21:08.942Z,7.68
2022-12-11T23:23:35.970Z,9.20
2022-12-11T23:26:04.335Z,7.93
2022-12-11T23:28:31.092Z,8.57
2022-12-11T23:30:57.665Z,7.80
2022-12-11T23:33:25.715Z,8.32
2022-12-11T23:35:52.325Z,7.82
2022-12-11T23:38:20.060Z,7.70
2022-12-11T23:40:46.964Z,7.47
2022-12-11T23:43:13.563Z,8.05
2022-12-11T23:45:43.562Z,8.35
2022-12-11T23:48:10.438Z,8.05
2022-12-11T23:50:37.117Z,8.23
2022-12-11T23:53:03.714Z,7.63
2022-12-11T23:55:30.307Z,8.18
2022-12-11T23:57:57.054Z,8.60
